This is the latest recevied weather packets stored in our database for station/object LY3FF-10. If no packets are shown the sender has not sent any weather packets the latest 10 day(s).
| Time | Temp. | Humidity | Pressure | Rain* | Wind** | Luminosity | Snow |
|---|---|---|---|---|---|---|---|
| 1787489895 | 18.89° C | 65% | 992.1 hPa | - | - | - | - |
| 1787489095 | 18.89° C | 69% | 992 hPa | - | - | - | - |
| 1787488355 | 18.33° C | 69% | 992 hPa | - | - | - | - |
| 1787487483 | 19.44° C | 64% | 992 hPa | - | - | - | - |
| 1787486735 | 20.56° C | 56% | 991.7 hPa | - | - | - | - |
| 1787486010 | 21.67° C | 55% | 991.5 hPa | - | - | - | - |
| 1787485240 | 21.11° C | 57% | 991.4 hPa | - | - | - | - |
| 1787484480 | 21.67° C | 56% | 991.5 hPa | - | - | - | - |
| 1787483680 | 21.11° C | 58% | 991.4 hPa | - | - | - | - |
| 1787482950 | 20.56° C | 59% | 991.4 hPa | - | - | - | - |
| 1787482207 | 20.56° C | 59% | 991.2 hPa | - | - | - | - |
| 1787481340 | 20.56° C | 60% | 991.3 hPa | - | - | - | - |
| 1787479750 | 19.44° C | 64% | 991.2 hPa | - | - | - | - |
| 1787478965 | 19.44° C | 64% | 991.2 hPa | - | - | - | - |
| 1787478084 | 18.89° C | 65% | 991.1 hPa | - | - | - | - |
| 1787477310 | 18.33° C | 70% | 990.9 hPa | - | - | - | - |
| 1787475610 | 17.22° C | 72% | 990.9 hPa | - | - | - | - |
| 1787474710 | 17.22° C | 70% | 990.7 hPa | - | - | - | - |
| 1787473812 | 17.22° C | 72% | 990.6 hPa | - | - | - | - |
| 1787472996 | 17.22° C | 72% | 990.4 hPa | - | - | - | - |
| 1787472110 | 16.67° C | 73% | 990.2 hPa | - | - | - | - |
| 1787471224 | 16.67° C | 75% | 990.1 hPa | - | - | - | - |
| 1787470375 | 16.67° C | 74% | 990 hPa | - | - | - | - |
| 1787469555 | 16.11° C | 75% | 989.9 hPa | - | - | - | - |
| 1787468730 | 16.11° C | 76% | 989.8 hPa | - | - | - | - |
* Rain since midnight (hover to see other rain measurements)
** Current wind speed in m/s (hover to see current wind gust speed)